Time;durP1;ratioP1;P1;durP2;ratioP2;P2;SDS_P1;SDS_P2;PMS_P1;PMS_P2;Temp;Humidity;BMP_temperature;BMP_pressure;BME280_temperature;BME280_humidity;BME280_pressure;Samples;Min_cycle;Max_cycle;Signal;HPM_P1;HPM_P2
2022/01/11 00:04:00;;;;;;;17.13;5.87;;;-0.50;99.90;;;-2.70;74.51;100688.44;10379104;27;96752;-78
2022/01/11 00:09:18;;;;;;;15.73;5.93;;;-0.50;99.90;;;-2.67;74.17;100686.59;10369048;28;96499;-78
2022/01/11 00:14:21;;;;;;;12.77;5.23;;;-0.40;99.90;;;-2.72;73.96;100700.66;10378179;27;98601;-78
2022/01/11 00:19:24;;;;;;;11.87;4.87;;;-0.40;99.90;;;-2.79;74.04;100695.81;10412633;27;96551;-78
2022/01/11 00:24:28;;;;;;;14.23;5.73;;;-0.50;99.90;;;-2.83;74.17;100696.84;10365112;28;96532;-78
2022/01/11 00:29:33;;;;;;;13.47;4.93;;;-0.50;99.90;;;-2.92;74.62;100715.50;10370506;28;96862;-78
2022/01/11 00:34:47;;;;;;;11.67;4.73;;;-0.60;99.90;;;-3.04;75.12;100712.53;10388149;27;98084;-77
2022/01/11 00:39:53;;;;;;;12.83;5.27;;;-0.70;99.90;;;-3.15;75.10;100719.97;10380980;28;96643;-77
2022/01/11 00:44:55;;;;;;;14.27;5.77;;;-0.80;99.90;;;-3.28;75.36;100730.06;10363917;27;98329;-77
2022/01/11 00:49:58;;;;;;;18.53;6.50;;;-0.90;99.90;;;-3.28;75.44;100739.63;10405879;27;96676;-79
2022/01/11 00:55:01;;;;;;;28.77;11.70;;;-1.00;99.90;;;-3.37;75.37;100734.81;10380633;28;97586;-77
2022/01/11 01:00:08;;;;;;;22.73;8.40;;;-1.00;99.90;;;-3.45;75.60;100742.94;10345967;28;96577;-76
2022/01/11 01:05:11;;;;;;;21.07;6.90;;;-1.10;99.90;;;-3.51;75.78;100758.78;10354792;28;98195;-79
2022/01/11 01:10:26;;;;;;;16.77;6.90;;;-1.10;99.90;;;-3.52;75.51;100757.94;10415631;27;96578;-78
2022/01/11 01:15:30;;;;;;;13.97;5.80;;;-1.20;99.90;;;-3.52;75.39;100767.50;10358814;27;97236;-78
2022/01/11 01:20:34;;;;;;;12.37;4.67;;;-1.20;99.90;;;-3.46;75.36;100766.41;10389523;27;96532;-80
2022/01/11 01:25:38;;;;;;;17.90;5.50;;;-1.20;99.90;;;-3.39;75.16;100770.41;10347145;28;96915;-79
2022/01/11 01:30:42;;;;;;;15.13;5.80;;;-1.10;99.90;;;-3.35;74.85;100774.59;10389052;28;98314;-79
2022/01/11 01:35:50;;;;;;;14.27;5.13;;;-1.10;99.90;;;-3.32;74.96;100769.25;10405631;28;96723;-79
2022/01/11 01:41:00;;;;;;;10.63;4.63;;;-1.10;99.90;;;-3.35;74.64;100772.81;10377537;28;96654;-79
2022/01/11 01:46:03;;;;;;;10.47;4.90;;;-1.00;99.90;;;-3.40;74.26;100777.38;10350465;28;96968;-79
2022/01/11 01:51:08;;;;;;;14.43;4.50;;;-1.10;99.90;;;-3.47;74.62;100775.94;10402680;27;96634;-79
2022/01/11 01:56:12;;;;;;;11.37;4.13;;;-1.10;99.90;;;-3.57;74.65;100769.44;10390329;28;96959;-79
2022/01/11 02:01:15;;;;;;;10.07;3.80;;;-1.20;99.90;;;-3.63;75.02;100767.94;10376989;28;97190;-78
2022/01/11 02:06:20;;;;;;;17.37;6.03;;;-1.30;99.90;;;-3.64;75.14;100774.06;10396657;27;96676;-78
2022/01/11 02:11:24;;;;;;;17.37;6.17;;;-1.30;99.90;;;-3.62;75.28;100780.00;10368938;28;96827;-79
2022/01/11 02:16:27;;;;;;;13.00;4.90;;;-1.30;99.90;;;-3.60;74.95;100777.34;10378737;27;97231;-78
2022/01/11 02:21:30;;;;;;;12.90;5.17;;;-1.30;99.90;;;-3.60;75.01;100774.75;10400418;27;96505;-78
2022/01/11 02:26:33;;;;;;;11.20;4.83;;;-1.30;99.90;;;-3.61;75.02;100779.09;10383515;28;99164;-78
2022/01/11 02:31:39;;;;;;;11.00;4.77;;;-1.30;99.90;;;-3.64;75.20;100774.06;10366648;28;98084;-78
2022/01/11 02:36:42;;;;;;;8.67;4.17;;;-1.30;99.90;;;-3.67;75.03;100771.56;10354879;28;98286;-78
2022/01/11 02:41:51;;;;;;;12.67;4.93;;;-1.30;99.90;;;-3.72;75.14;100777.84;10366112;28;96651;-78
2022/01/11 02:46:54;;;;;;;8.70;3.63;;;-1.40;99.90;;;-3.76;75.00;100792.75;10330847;28;96608;-78
2022/01/11 02:51:58;;;;;;;13.53;4.23;;;-1.40;99.90;;;-3.88;75.46;100793.22;10353609;28;98186;-78
2022/01/11 02:57:01;;;;;;;11.37;4.60;;;-1.50;99.90;;;-3.99;75.81;100808.38;10373594;27;97127;-78
2022/01/11 03:02:04;;;;;;;12.47;4.27;;;-1.60;99.90;;;-4.13;75.78;100808.94;10354077;28;96911;-79
2022/01/11 03:07:07;;;;;;;14.00;5.23;;;-1.70;99.90;;;-4.24;76.04;100814.53;10357378;28;96867;-78
2022/01/11 03:12:11;;;;;;;11.87;4.70;;;-1.80;99.90;;;-4.34;76.44;100808.00;10360847;28;96951;-78
2022/01/11 03:17:14;;;;;;;19.37;6.77;;;-1.90;99.90;;;-4.40;77.00;100818.63;10357249;28;96633;-78
2022/01/11 03:22:17;;;;;;;12.90;5.53;;;-2.00;99.90;;;-4.41;76.78;100816.94;10369233;28;96549;-78
2022/01/11 03:27:19;;;;;;;17.43;4.80;;;-2.00;99.90;;;-4.36;76.85;100825.38;10399632;27;96708;-79
2022/01/11 03:32:24;;;;;;;13.83;4.50;;;-2.00;99.90;;;-4.29;76.74;100828.59;10361857;28;97073;-78
2022/01/11 03:37:41;;;;;;;9.47;4.33;;;-2.00;99.90;;;-4.24;76.16;100842.25;10381930;28;97140;-78
2022/01/11 03:42:45;;;;;;;13.03;4.77;;;-1.90;99.90;;;-4.20;76.00;100849.84;10376870;27;96660;-78
2022/01/11 03:47:51;;;;;;;8.60;3.40;;;-1.90;99.90;;;-4.19;75.52;100848.09;10387491;27;98546;-77
2022/01/11 03:53:08;;;;;;;9.93;4.07;;;-1.90;99.90;;;-4.22;75.96;100851.66;10426046;27;96873;-78
2022/01/11 03:58:13;;;;;;;11.97;4.70;;;-1.90;99.90;;;-4.32;75.62;100858.09;10394066;27;98390;-79
2022/01/11 04:03:17;;;;;;;7.37;2.90;;;-1.90;99.90;;;-4.39;75.81;100849.69;10371419;28;98765;-77
2022/01/11 04:08:20;;;;;;;10.53;4.20;;;-2.00;99.90;;;-4.41;76.06;100868.81;10402798;27;96772;-77
2022/01/11 04:13:23;;;;;;;10.77;4.87;;;-2.00;99.90;;;-4.47;76.29;100866.44;10388834;27;96640;-77
2022/01/11 04:18:26;;;;;;;16.00;5.60;;;-2.10;99.90;;;-4.59;76.25;100878.97;10369223;28;96572;-79
2022/01/11 04:23:29;;;;;;;13.60;5.60;;;-2.20;99.90;;;-4.65;76.54;100884.38;10398371;27;96939;-78
2022/01/11 04:28:32;;;;;;;17.53;7.57;;;-2.20;99.90;;;-4.69;76.21;100894.88;10384518;27;98522;-78
2022/01/11 04:33:36;;;;;;;16.37;6.10;;;-2.30;99.90;;;-4.74;76.49;100889.84;10398112;27;98188;-78
2022/01/11 04:38:39;;;;;;;14.93;4.40;;;-2.30;99.90;;;-4.79;76.73;100899.56;10367541;28;96559;-78
2022/01/11 04:43:43;;;;;;;13.93;4.97;;;-2.40;99.90;;;-4.84;76.42;100906.66;10378051;27;96697;-78
2022/01/11 04:48:46;;;;;;;9.13;3.83;;;-2.40;99.90;;;-4.90;76.66;100912.06;10363567;28;96584;-78
2022/01/11 04:53:49;;;;;;;13.20;5.40;;;-2.50;99.90;;;-4.99;77.22;100914.94;10384999;27;96576;-78
2022/01/11 04:58:52;;;;;;;19.13;7.33;;;-2.50;99.90;;;-5.05;77.12;100920.34;10395274;27;98645;-77
2022/01/11 05:03:55;;;;;;;17.37;7.20;;;-2.60;99.90;;;-5.12;77.24;100935.25;10359711;28;96580;-78
2022/01/11 05:08:58;;;;;;;11.13;4.80;;;-2.70;99.90;;;-5.14;77.25;100932.72;10370015;28;96635;-78
2022/01/11 05:14:01;;;;;;;19.17;7.17;;;-2.70;99.90;;;-5.16;77.85;100946.59;10389802;27;98305;-78
2022/01/11 05:19:06;;;;;;;27.70;10.23;;;-2.70;99.90;;;-5.22;77.20;100958.03;10354608;28;97698;-77
2022/01/11 05:24:10;;;;;;;14.90;4.57;;;-2.80;99.90;;;-5.28;77.65;100968.56;10374125;28;98679;-78
2022/01/11 05:29:13;;;;;;;32.00;10.93;;;-2.80;99.90;;;-5.34;78.04;100978.28;10370254;28;96669;-78
2022/01/11 05:34:17;;;;;;;22.83;11.27;;;-2.80;99.90;;;-5.40;77.93;100977.59;10338866;28;96654;-77
2022/01/11 05:39:20;;;;;;;24.60;10.10;;;-2.90;99.90;;;-5.48;78.23;100989.09;10361171;28;96676;-78
2022/01/11 05:44:23;;;;;;;35.17;12.07;;;-3.00;99.90;;;-5.54;78.68;101004.81;10383466;27;96768;-78
2022/01/11 05:49:26;;;;;;;36.73;13.00;;;-3.10;99.90;;;-5.60;78.81;101002.41;10367241;28;96610;-78
2022/01/11 05:54:28;;;;;;;37.63;12.53;;;-3.10;99.90;;;-5.63;79.14;101011.13;10392793;28;96718;-78
2022/01/11 05:59:31;;;;;;;32.23;12.97;;;-3.20;99.90;;;-5.62;79.46;101010.22;10361942;28;97990;-78
2022/01/11 06:04:34;;;;;;;32.87;13.23;;;-3.20;99.90;;;-5.62;79.16;101024.91;10360488;27;96813;-78
2022/01/11 06:09:37;;;;;;;45.87;19.17;;;-3.20;99.90;;;-5.60;79.28;101020.53;10364486;28;97837;-78
2022/01/11 06:14:40;;;;;;;50.70;19.87;;;-3.20;99.90;;;-5.53;78.93;101035.84;10362560;28;96582;-80
2022/01/11 06:19:43;;;;;;;33.77;13.63;;;-3.20;99.90;;;-5.50;78.80;101048.69;10351048;28;96575;-78
2022/01/11 06:24:45;;;;;;;23.30;8.13;;;-3.10;99.90;;;-5.41;78.35;101060.53;10367094;28;96571;-79
2022/01/11 06:29:48;;;;;;;19.50;7.27;;;-3.10;99.90;;;-5.39;78.11;101066.53;10380753;27;98003;-79
2022/01/11 06:34:53;;;;;;;21.10;7.50;;;-3.00;99.90;;;-5.34;78.02;101074.13;10405464;27;97415;-79
2022/01/11 06:39:56;;;;;;;18.27;7.90;;;-3.00;99.90;;;-5.29;77.95;101090.41;10408827;27;96663;-79
2022/01/11 06:44:59;;;;;;;18.93;6.67;;;-3.00;99.90;;;-5.25;77.72;101092.84;10393865;27;97079;-79
2022/01/11 06:50:03;;;;;;;16.63;6.43;;;-2.90;99.90;;;-5.13;77.73;101102.84;10352999;27;96614;-77
2022/01/11 06:55:08;;;;;;;14.57;5.97;;;-2.80;99.90;;;-5.00;77.41;101105.06;10372807;28;96496;-79
2022/01/11 07:00:13;;;;;;;55.23;21.33;;;-2.70;99.90;;;-4.48;77.08;101100.84;10410194;27;97348;-77
2022/01/11 07:05:17;;;;;;;58.93;22.70;;;-2.60;99.90;;;-3.83;75.15;101105.53;10347130;28;96784;-77
2022/01/11 07:10:20;;;;;;;17.83;7.60;;;-2.30;99.90;;;-3.25;72.98;101108.56;10383840;28;96889;-77
2022/01/11 07:15:24;;;;;;;19.30;9.17;;;-1.90;99.90;;;-2.74;71.37;101116.13;10367172;28;96625;-78
2022/01/11 07:20:27;;;;;;;18.07;9.47;;;-1.50;99.90;;;-2.33;70.55;101102.34;10396560;27;98578;-78
2022/01/11 07:25:32;;;;;;;33.23;13.07;;;-1.20;99.90;;;-1.85;68.98;101111.59;10368316;28;97327;-78
2022/01/11 07:30:36;;;;;;;25.87;10.50;;;-0.80;99.90;;;-1.50;66.46;101115.25;10374778;28;98366;-78
2022/01/11 07:35:40;;;;;;;25.97;12.63;;;-0.40;99.90;;;-1.27;64.77;101119.41;10386373;28;96592;-78
2022/01/11 07:40:43;;;;;;;16.57;8.50;;;-0.20;99.30;;;-0.97;63.60;101118.00;10360727;27;98948;-78
2022/01/11 07:45:46;;;;;;;20.40;9.60;;;0.10;97.80;;;-0.49;62.20;101127.03;10374281;28;96809;-78
2022/01/11 07:50:48;;;;;;;17.70;8.40;;;0.40;96.70;;;-0.12;60.34;101133.03;10367473;28;96854;-78
2022/01/11 07:55:51;;;;;;;20.93;8.37;;;0.70;94.60;;;0.24;58.11;101136.44;10392960;27;98271;-77
2022/01/11 08:00:54;;;;;;;18.17;7.90;;;1.00;91.40;;;0.57;57.16;101146.03;10360997;28;96804;-79
2022/01/11 08:05:57;;;;;;;15.97;6.53;;;1.30;92.40;;;0.91;56.03;101145.09;10344937;28;97061;-79
2022/01/11 08:11:00;;;;;;;17.43;7.00;;;1.50;91.40;;;1.18;54.54;101144.50;10394925;27;97493;-79
2022/01/11 08:16:03;;;;;;;12.93;6.23;;;1.80;89.10;;;1.42;53.05;101150.16;10370088;27;97736;-76
2022/01/11 08:21:06;;;;;;;14.70;7.10;;;2.00;87.50;;;1.74;52.84;101143.94;10359093;28;96572;-79
2022/01/11 08:26:09;;;;;;;15.27;7.87;;;2.40;89.60;;;2.10;51.29;101155.84;10379972;28;96746;-79
2022/01/11 08:31:12;;;;;;;14.23;6.70;;;2.80;84.70;;;2.27;50.53;101162.69;10366102;28;96793;-79
2022/01/11 08:36:15;;;;;;;16.13;7.73;;;3.10;84.20;;;2.72;50.85;101166.13;10367506;27;98378;-79
2022/01/11 08:41:22;;;;;;;12.17;5.70;;;3.50;85.80;;;3.00;48.86;101168.75;10388654;27;100829;-78
2022/01/11 08:46:24;;;;;;;13.20;6.20;;;3.90;78.90;;;3.13;47.62;101159.16;10364419;27;96917;-78
2022/01/11 08:51:28;;;;;;;9.43;5.70;;;4.20;75.50;;;3.15;47.10;101157.25;10385497;27;98511;-78
2022/01/11 08:56:31;;;;;;;11.83;6.00;;;4.30;71.70;;;3.44;46.43;101168.53;10363587;28;96785;-77
2022/01/11 09:01:34;;;;;;;11.03;5.37;;;4.60;69.90;;;3.39;45.02;101162.72;10401457;27;96669;-77
2022/01/11 09:06:37;;;;;;;11.40;6.47;;;4.60;64.40;;;3.00;45.75;101168.75;10374710;28;96675;-77
2022/01/11 09:11:57;;;;;;;13.47;6.53;;;4.50;65.80;;;2.32;46.90;101174.59;10382915;27;96683;-79
2022/01/11 09:17:04;;;;;;;13.47;6.80;;;4.10;63.10;;;1.66;47.69;101177.59;10376424;27;96817;-79
2022/01/11 09:22:07;;;;;;;14.47;5.77;;;3.70;62.90;;;1.82;49.05;101173.16;10389858;27;97984;-77
2022/01/11 09:27:10;;;;;;;22.80;9.93;;;3.60;65.60;;;2.38;47.06;101171.63;10349691;28;98205;-79
2022/01/11 09:32:14;;;;;;;10.37;5.63;;;3.80;63.00;;;3.00;45.95;101168.75;10358261;28;98281;-79
2022/01/11 09:37:18;;;;;;;12.90;5.70;;;4.20;64.40;;;3.70;45.45;101166.00;10405293;27;96607;-79
2022/01/11 09:42:22;;;;;;;10.07;4.97;;;4.80;64.70;;;4.25;43.46;101150.03;10402389;27;96609;-79
2022/01/11 09:47:25;;;;;;;9.97;4.93;;;5.30;61.30;;;4.68;42.86;101156.75;10371985;28;98451;-80
2022/01/11 09:52:28;;;;;;;11.10;5.70;;;5.80;63.00;;;4.72;42.00;101155.59;10358309;28;97408;-79
2022/01/11 09:57:32;;;;;;;11.70;5.73;;;6.00;61.00;;;4.17;41.88;101157.59;10358118;28;98081;-79
2022/01/11 10:02:35;;;;;;;27.50;12.70;;;5.60;56.30;;;3.42;43.86;101153.81;10353056;28;96563;-79
2022/01/11 10:07:41;;;;;;;16.47;6.20;;;5.10;58.20;;;2.76;45.21;101152.72;10376431;27;96983;-79
2022/01/11 10:12:51;;;;;;;11.00;4.83;;;4.60;59.60;;;2.27;46.78;101147.78;10368812;28;96794;-79
2022/01/11 10:17:54;;;;;;;8.90;4.60;;;4.20;60.50;;;1.90;47.36;101150.91;10367056;28;97075;-79
2022/01/11 10:23:01;;;;;;;7.67;4.40;;;3.80;60.70;;;1.65;47.93;101159.34;10402039;27;98418;-78
2022/01/11 10:28:05;;;;;;;8.63;4.60;;;3.60;62.00;;;1.51;48.61;101150.50;10365375;28;99784;-77
2022/01/11 10:33:10;;;;;;;12.87;5.23;;;3.40;62.50;;;1.46;48.99;101156.91;10366793;28;98503;-77
2022/01/11 10:38:26;;;;;;;17.23;5.93;;;3.30;62.90;;;1.37;49.39;101162.66;10382427;27;96665;-77
2022/01/11 10:43:30;;;;;;;11.97;5.67;;;3.20;63.90;;;1.37;49.82;101157.41;10383930;27;98187;-77
2022/01/11 10:48:39;;;;;;;11.07;4.83;;;3.20;64.10;;;1.40;49.54;101159.88;10365654;28;97940;-77
2022/01/11 10:53:48;;;;;;;10.23;4.50;;;3.20;64.20;;;1.46;50.29;101154.28;10371504;28;97322;-79
2022/01/11 10:59:09;;;;;;;9.27;4.67;;;3.30;64.70;;;2.20;49.03;101158.75;10368493;28;98265;-77
2022/01/11 11:04:32;;;;;;;9.10;4.50;;;3.80;64.70;;;2.70;46.98;101153.09;10364991;28;98599;-80
2022/01/11 11:09:50;;;;;;;13.57;5.50;;;4.20;62.20;;;2.77;47.45;101146.53;10384712;27;97229;-78
2022/01/11 11:14:56;;;;;;;14.57;6.53;;;4.40;62.80;;;3.05;46.55;101145.63;10367357;28;96840;-78
2022/01/11 11:20:08;;;;;;;12.93;5.03;;;4.60;62.00;;;3.08;46.54;101145.47;10359727;28;97356;-77
2022/01/11 11:25:12;;;;;;;11.13;4.90;;;4.70;61.30;;;2.81;46.28;101150.63;10395707;27;96658;-80
2022/01/11 11:30:15;;;;;;;8.53;4.20;;;4.50;60.70;;;2.55;47.02;101144.38;10372639;28;96638;-79
2022/01/11 11:35:18;;;;;;;10.37;4.90;;;4.30;61.40;;;2.39;47.90;101146.22;10357314;28;97152;-78
2022/01/11 11:40:25;;;;;;;9.27;4.13;;;4.30;61.90;;;2.30;47.90;101141.53;10372850;28;97636;-79
2022/01/11 11:45:39;;;;;;;10.37;4.50;;;4.20;62.20;;;2.19;48.16;101136.94;10380717;28;96939;-79
2022/01/11 11:50:52;;;;;;;14.80;6.00;;;4.00;61.80;;;2.11;48.52;101139.19;10371404;28;97392;-78
2022/01/11 11:56:23;;;;;;;8.37;3.67;;;3.90;62.50;;;2.14;48.66;101147.69;10390624;27;96996;-78
2022/01/11 12:01:45;;;;;;;19.17;9.00;;;3.90;62.60;;;2.10;48.30;101132.25;10362195;28;98815;-78
2022/01/11 12:06:48;;;;;;;8.17;4.03;;;3.90;62.20;;;2.12;48.17;101146.09;10390310;27;97092;-78
2022/01/11 12:11:52;;;;;;;8.47;4.37;;;3.90;62.10;;;2.13;48.60;101151.25;10367688;28;97224;-78
2022/01/11 12:16:55;;;;;;;13.10;7.27;;;3.90;62.70;;;2.15;48.73;101149.38;10383511;28;98253;-78
2022/01/11 12:22:07;;;;;;;12.27;5.33;;;4.00;62.90;;;2.20;48.60;101153.50;10361203;28;96647;-78
2022/01/11 12:27:14;;;;;;;75.80;32.40;;;4.00;62.80;;;2.19;48.54;101154.44;10382449;27;98417;-79
2022/01/11 12:32:19;;;;;;;14.67;7.03;;;4.00;62.50;;;2.19;48.48;101144.78;10376091;28;97491;-79
2022/01/11 12:37:29;;;;;;;14.53;5.50;;;4.00;62.40;;;2.20;48.47;101146.47;10370480;28;98489;-78
2022/01/11 12:42:33;;;;;;;8.60;4.70;;;4.10;62.20;;;2.21;48.43;101140.28;10355160;28;97276;-79
2022/01/11 12:47:43;;;;;;;9.47;4.83;;;4.10;62.20;;;2.23;47.67;101141.06;10376013;28;97093;-79
2022/01/11 12:52:47;;;;;;;10.77;4.47;;;4.10;61.70;;;2.27;47.65;101147.78;10368862;28;96877;-78
2022/01/11 12:57:50;;;;;;;13.23;6.97;;;4.10;61.70;;;2.29;47.87;101150.34;10401653;27;96668;-79
2022/01/11 13:03:03;;;;;;;8.13;4.63;;;4.10;61.70;;;2.28;47.43;101165.25;10370361;28;98779;-79
2022/01/11 13:08:08;;;;;;;8.80;4.13;;;4.10;61.20;;;2.28;47.64;101165.25;10358509;28;97930;-79
2022/01/11 13:13:14;;;;;;;8.53;4.70;;;4.10;60.80;;;2.27;47.63;101170.56;10372425;27;97054;-79
2022/01/11 13:18:19;;;;;;;13.83;5.57;;;4.10;61.10;;;2.26;47.67;101167.09;10360549;28;98237;-78
2022/01/11 13:24:24;;;;;;;10.03;5.40;;;4.10;60.70;;;2.24;48.12;101163.72;10358549;28;96778;-79
2022/01/11 13:29:05;;;;;;;9.47;4.00;;;4.10;61.30;;;2.22;47.29;101167.38;10353376;28;96605;-79
2022/01/11 13:34:11;;;;;;;11.07;5.03;;;4.10;60.80;;;2.18;47.54;101163.25;10372186;28;96561;-79
2022/01/11 13:39:36;;;;;;;9.27;4.47;;;4.10;61.30;;;2.16;47.63;101163.34;10390943;27;97414;-79
2022/01/11 13:44:43;;;;;;;9.70;4.30;;;4.10;60.90;;;2.14;47.42;101173.91;10356956;28;97297;-79
2022/01/11 13:49:53;;;;;;;7.43;4.33;;;4.00;61.00;;;2.13;47.62;101166.13;10369912;28;96503;-79
2022/01/11 13:54:58;;;;;;;8.83;4.40;;;4.00;61.30;;;2.09;47.46;101175.94;10387949;27;96593;-79
2022/01/11 14:00:06;;;;;;;10.23;4.43;;;4.00;61.00;;;2.07;48.11;101171.75;10387163;27;96526;-79
2022/01/11 14:05:14;;;;;;;8.17;4.37;;;4.00;61.40;;;2.02;48.28;101172.00;10384613;27;96953;-79
2022/01/11 14:10:17;;;;;;;10.77;4.30;;;4.00;62.00;;;1.96;47.52;101177.59;10377257;27;96976;-79
2022/01/11 14:15:29;;;;;;;8.47;3.93;;;3.90;61.20;;;1.93;48.21;101175.19;10357774;28;97097;-78
2022/01/11 14:20:35;;;;;;;9.17;4.63;;;3.90;61.40;;;1.91;47.77;101189.28;10357519;28;96802;-80
2022/01/11 14:25:51;;;;;;;8.97;4.30;;;3.80;60.90;;;1.84;47.80;101192.25;10356257;28;96887;-79
2022/01/11 14:31:16;;;;;;;8.40;3.43;;;3.80;60.90;;;1.77;48.15;101203.19;10358854;28;96662;-79
2022/01/11 14:36:22;;;;;;;13.17;4.53;;;3.70;61.10;;;1.65;48.00;101212.59;10386632;27;96598;-79
2022/01/11 14:41:39;;;;;;;8.87;4.13;;;3.70;61.10;;;1.49;48.30;101211.75;10364738;28;96999;-81
2022/01/11 14:46:54;;;;;;;13.43;5.33;;;3.50;61.30;;;1.29;48.88;101208.44;10357975;28;98390;-81
2022/01/11 14:52:06;;;;;;;12.33;5.30;;;3.40;61.70;;;1.12;48.89;101215.53;10382809;28;96730;-80
2022/01/11 14:57:09;;;;;;;10.20;5.43;;;3.20;61.80;;;1.02;49.04;101223.00;10370890;28;96851;-81
2022/01/11 15:02:25;;;;;;;9.83;5.10;;;3.10;61.80;;;0.93;49.10;101223.50;10393230;27;96690;-79
2022/01/11 15:07:28;;;;;;;14.30;6.47;;;3.00;62.00;;;0.80;49.30;101228.56;10388148;27;98102;-79
2022/01/11 15:12:31;;;;;;;10.63;4.80;;;2.90;62.20;;;0.59;49.97;101230.50;10383766;27;96671;-79
2022/01/11 15:17:34;;;;;;;12.87;6.20;;;2.70;62.60;;;0.34;50.51;101230.91;10367257;28;96612;-79
2022/01/11 15:22:38;;;;;;;51.63;21.77;;;2.60;62.90;;;0.08;51.05;101237.44;10342805;28;98478;-78
2022/01/11 15:27:42;;;;;;;24.43;9.80;;;2.40;63.40;;;-0.12;51.66;101234.94;10365202;28;96599;-80
2022/01/11 15:32:45;;;;;;;21.37;7.67;;;2.20;64.10;;;-0.35;52.55;101246.50;10350481;28;97167;-79
2022/01/11 15:37:47;;;;;;;124.63;39.47;;;2.00;64.50;;;-0.57;52.93;101251.88;10385673;27;98135;-80
2022/01/11 15:42:50;;;;;;;24.97;12.13;;;1.80;65.00;;;-0.79;53.38;101252.00;10363877;28;98656;-79
2022/01/11 15:47:54;;;;;;;30.63;11.63;;;1.60;65.30;;;-1.01;54.40;101252.13;10357695;27;96661;-80
2022/01/11 15:52:57;;;;;;;30.37;15.40;;;1.40;65.80;;;-1.28;55.74;101274.19;10374434;28;96528;-79
2022/01/11 15:58:00;;;;;;;30.27;10.93;;;1.10;67.50;;;-1.53;56.53;101270.03;10366322;28;97195;-79
2022/01/11 16:03:04;;;;;;;32.50;11.77;;;0.90;68.30;;;-1.77;57.07;101278.88;10368068;28;96656;-76
2022/01/11 16:08:09;;;;;;;34.83;15.30;;;0.70;68.60;;;-1.91;57.66;101285.50;10360195;28;96905;-77
2022/01/11 16:13:13;;;;;;;26.10;13.03;;;0.50;69.40;;;-2.01;58.23;101293.75;10382006;27;96960;-78
2022/01/11 16:18:17;;;;;;;37.23;18.13;;;0.40;71.00;;;-2.04;58.09;101294.72;10394245;27;96605;-76
2022/01/11 16:23:23;;;;;;;35.90;15.67;;;0.30;70.30;;;-2.10;58.26;101296.69;10368269;28;98339;-75
2022/01/11 16:28:28;;;;;;;24.77;11.80;;;0.30;70.20;;;-2.22;59.11;101295.41;10364499;28;98435;-77
2022/01/11 16:33:31;;;;;;;33.43;13.23;;;0.10;71.80;;;-2.25;58.81;101303.34;10366195;28;97396;-77
2022/01/11 16:38:36;;;;;;;46.87;18.57;;;0.10;71.10;;;-2.36;59.24;101306.38;10356092;28;98277;-77
2022/01/11 16:43:39;;;;;;;57.57;19.27;;;0.00;71.20;;;-2.51;59.66;101304.38;10362970;28;96882;-77
2022/01/11 16:48:42;;;;;;;42.43;17.10;;;-0.10;72.30;;;-2.62;60.29;101317.75;10365157;27;96706;-77
2022/01/11 16:53:46;;;;;;;35.87;14.63;;;-0.20;72.90;;;-2.71;60.40;101318.09;10363679;28;96645;-77
2022/01/11 16:58:49;;;;;;;53.23;17.53;;;-0.30;72.70;;;-2.75;60.66;101325.19;10374009;27;97413;-77
2022/01/11 17:03:53;;;;;;;50.57;16.67;;;-0.40;72.90;;;-2.82;60.96;101328.03;10358813;28;96836;-78
2022/01/11 17:09:00;;;;;;;72.10;20.80;;;-0.40;73.60;;;-2.91;61.55;101341.38;10361885;27;97933;-77
2022/01/11 17:14:03;;;;;;;56.53;18.30;;;-0.50;74.10;;;-3.01;62.11;101341.69;10357901;28;97438;-77
2022/01/11 17:19:07;;;;;;;61.40;18.87;;;-0.60;75.10;;;-3.09;62.35;101351.53;10356950;28;97476;-77
2022/01/11 17:24:09;;;;;;;48.97;17.37;;;-0.70;75.40;;;-3.15;62.33;101358.69;10391060;27;98139;-77
2022/01/11 17:29:14;;;;;;;58.90;18.77;;;-0.70;75.10;;;-3.20;62.96;101366.63;10379049;28;96781;-78
2022/01/11 17:34:17;;;;;;;50.93;18.83;;;-0.80;76.60;;;-3.30;63.75;101371.31;10363475;28;97062;-78
2022/01/11 17:39:20;;;;;;;72.07;22.63;;;-0.90;77.70;;;-3.37;64.29;101374.97;10361385;28;96917;-78
2022/01/11 17:44:23;;;;;;;58.60;23.47;;;-1.00;78.60;;;-3.44;64.61;101383.88;10372648;28;96589;-78
2022/01/11 17:49:27;;;;;;;64.30;22.90;;;-1.10;79.80;;;-3.48;64.93;101397.03;10364784;28;97841;-77
2022/01/11 17:54:30;;;;;;;52.30;19.37;;;-1.10;81.10;;;-3.58;65.47;101407.72;10376360;28;98068;-77
2022/01/11 17:59:34;;;;;;;96.73;30.47;;;-1.20;80.90;;;-3.66;65.58;101406.25;10360022;28;97499;-78
2022/01/11 18:04:37;;;;;;;74.17;28.33;;;-1.30;81.60;;;-3.74;65.81;101419.47;10369031;28;96910;-77
2022/01/11 18:09:41;;;;;;;75.60;25.53;;;-1.30;81.60;;;-3.82;65.87;101422.31;10363493;28;97112;-78
2022/01/11 18:14:46;;;;;;;35.40;11.90;;;-1.40;82.80;;;-3.83;66.55;101428.41;10397571;27;96721;-77
2022/01/11 18:19:49;;;;;;;42.50;13.93;;;-1.50;82.90;;;-3.70;65.89;101436.69;10366207;28;97211;-76
2022/01/11 18:24:52;;;;;;;31.87;11.47;;;-1.40;83.10;;;-3.65;65.59;101446.94;10386650;27;96885;-76
2022/01/11 18:29:55;;;;;;;28.20;8.97;;;-1.40;83.50;;;-3.68;65.62;101447.03;10367447;28;96571;-77
2022/01/11 18:34:58;;;;;;;19.97;7.63;;;-1.40;83.70;;;-3.69;65.78;101455.72;10374597;28;97902;-76
2022/01/11 18:40:04;;;;;;;33.30;10.60;;;-1.40;84.30;;;-3.73;65.80;101454.94;10357172;28;98458;-75
2022/01/11 18:45:07;;;;;;;26.87;9.17;;;-1.40;84.30;;;-3.79;65.89;101460.31;10352242;28;98491;-75
2022/01/11 18:50:11;;;;;;;28.77;10.87;;;-1.40;84.40;;;-3.86;66.30;101459.66;10356082;28;98389;-77
2022/01/11 18:55:14;;;;;;;27.80;10.83;;;-1.50;85.30;;;-3.93;66.65;101452.09;10349999;28;97240;-75
2022/01/11 19:00:19;;;;;;;40.47;13.17;;;-1.50;87.10;;;-4.00;66.90;101469.63;10359786;28;98581;-75
2022/01/11 19:05:23;;;;;;;38.50;13.47;;;-1.60;86.70;;;-4.10;67.08;101471.63;10363086;27;97385;-74
2022/01/11 19:10:26;;;;;;;37.83;13.10;;;-1.70;86.60;;;-4.16;67.64;101479.56;10376153;27;98373;-74
2022/01/11 19:15:29;;;;;;;38.03;11.70;;;-1.70;88.10;;;-4.25;67.78;101486.78;10360171;28;98143;-74
2022/01/11 19:20:32;;;;;;;38.70;12.53;;;-1.80;88.40;;;-4.31;68.07;101490.41;10360179;28;97935;-74
2022/01/11 19:25:37;;;;;;;48.07;15.10;;;-1.90;89.20;;;-4.36;68.26;101500.91;10381953;27;96639;-74
2022/01/11 19:30:40;;;;;;;58.77;17.10;;;-2.00;90.50;;;-4.43;68.59;101514.09;10369710;28;96596;-74
2022/01/11 19:35:43;;;;;;;48.17;14.77;;;-2.00;90.50;;;-4.50;68.96;101512.50;10377477;28;97010;-74
2022/01/11 19:41:05;;;;;;;50.47;15.32;;;-2.10;90.80;;;-4.55;69.40;101519.59;10371856;28;96779;-74
2022/01/11 19:46:08;;;;;;;47.83;16.23;;;-2.10;91.00;;;-4.62;69.92;101522.34;10373925;28;96656;-74
2022/01/11 19:51:11;;;;;;;45.73;15.30;;;-2.20;92.20;;;-4.66;69.85;101523.31;10371494;28;96677;-75
2022/01/11 19:56:16;;;;;;;50.97;16.90;;;-2.30;91.90;;;-4.72;70.00;101536.41;10352711;28;96611;-75
2022/01/11 20:01:19;;;;;;;58.27;18.83;;;-2.30;92.40;;;-4.79;70.20;101537.47;10406889;27;99748;-75
2022/01/11 20:06:22;;;;;;;76.73;23.93;;;-2.40;92.20;;;-4.85;70.07;101532.44;10364658;28;97965;-75
2022/01/11 20:11:27;;;;;;;80.67;23.23;;;-2.40;93.10;;;-4.89;70.61;101547.19;10383368;27;96669;-75
2022/01/11 20:16:30;;;;;;;54.40;16.37;;;-2.50;93.90;;;-4.92;70.72;101556.78;10353875;28;97078;-75
2022/01/11 20:21:50;;;;;;;54.13;15.67;;;-2.50;93.80;;;-4.98;71.48;101549.16;10374483;27;96981;-76
2022/01/11 20:27:11;;;;;;;73.70;19.47;;;-2.60;94.00;;;-5.02;71.18;101555.31;10370467;28;96744;-76
2022/01/11 20:32:15;;;;;;;226.07;42.60;;;-2.60;94.30;;;-5.06;71.40;101569.22;10362916;28;98315;-75
2022/01/11 20:37:19;;;;;;;266.83;45.50;;;-2.70;95.10;;;-5.09;71.49;101566.72;10356336;28;96546;-75
2022/01/11 20:42:23;;;;;;;119.80;26.73;;;-2.70;94.80;;;-5.08;71.58;101571.00;10355526;28;99126;-75
2022/01/11 20:47:33;;;;;;;93.87;21.53;;;-2.70;95.00;;;-5.11;71.31;101580.53;10342828;28;98642;-75
2022/01/11 20:52:48;;;;;;;45.57;15.03;;;-2.70;95.10;;;-5.16;71.24;101574.63;10339291;28;97662;-75